Time;durP1;ratioP1;P1;durP2;ratioP2;P2;SDS_P1;SDS_P2;PMS_P1;PMS_P2;Temp;Humidity;BMP_temperature;BMP_pressure;BME280_temperature;BME280_humidity;BME280_pressure;Samples;Min_cycle;Max_cycle;Signal;HPM_P1;HPM_P2
2023/08/29 00:01:02;;;;;;;5.60;2.05;;;14.40;99.90;;;;;;6157319;23;20395;-86
2023/08/29 00:03:28;;;;;;;6.50;2.65;;;14.30;99.90;;;;;;6156836;23;20017;-85
2023/08/29 00:06:01;;;;;;;7.07;3.30;;;14.30;99.90;;;;;;6132628;23;20013;-86
2023/08/29 00:08:26;;;;;;;7.90;2.10;;;14.40;99.90;;;;;;6132257;23;20013;-85
2023/08/29 00:10:58;;;;;;;6.95;3.10;;;14.30;99.90;;;;;;6157661;23;20343;-85
2023/08/29 00:13:25;;;;;;;5.68;2.15;;;14.30;99.90;;;;;;6157699;23;20017;-86
2023/08/29 00:15:51;;;;;;;7.05;3.10;;;14.30;99.90;;;;;;6132223;23;20096;-85
2023/08/29 00:18:19;;;;;;;4.95;1.60;;;14.30;99.90;;;;;;6132380;23;20013;-85
2023/08/29 00:20:44;;;;;;;4.85;2.47;;;14.20;99.90;;;;;;6156666;23;20032;-86
2023/08/29 00:23:10;;;;;;;5.97;2.60;;;14.20;99.90;;;;;;6131972;23;20462;-86
2023/08/29 00:25:36;;;;;;;4.68;2.53;;;14.20;99.90;;;;;;6132511;23;20100;-86
2023/08/29 00:28:03;;;;;;;4.70;1.77;;;14.20;99.90;;;;;;6156707;23;20049;-86
2023/08/29 00:30:36;;;;;;;6.18;2.53;;;14.10;99.90;;;;;;6155183;23;20513;-85
2023/08/29 00:33:01;;;;;;;2.33;1.17;;;14.10;99.90;;;;;;6155968;23;20013;-86
2023/08/29 00:35:27;;;;;;;5.90;1.60;;;14.00;99.90;;;;;;6131650;23;20012;-86
2023/08/29 00:37:52;;;;;;;2.50;1.17;;;13.90;99.90;;;;;;6156825;23;20009;-85
2023/08/29 00:40:18;;;;;;;2.88;1.05;;;13.90;99.90;;;;;;6156195;23;20045;-85
2023/08/29 00:42:43;;;;;;;2.88;1.30;;;13.90;99.90;;;;;;6156540;23;20104;-85
2023/08/29 00:45:09;;;;;;;2.10;0.90;;;13.90;99.90;;;;;;6155597;23;20040;-86
2023/08/29 00:47:36;;;;;;;0.60;0.60;;;13.90;99.90;;;;;;6156152;23;20013;-85
2023/08/29 00:50:02;;;;;;;1.55;0.63;;;13.80;99.90;;;;;;6155975;23;20015;-86
2023/08/29 00:52:28;;;;;;;1.33;0.52;;;13.70;99.90;;;;;;6157458;23;20096;-86
2023/08/29 00:54:54;;;;;;;3.08;1.02;;;13.70;99.90;;;;;;6157378;23;20139;-86
2023/08/29 00:57:19;;;;;;;2.65;1.40;;;13.60;99.90;;;;;;6132817;23;20458;-85
2023/08/29 00:59:45;;;;;;;5.40;2.25;;;13.70;99.90;;;;;;6157173;23;20005;-85
2023/08/29 01:02:11;;;;;;;3.72;1.45;;;13.80;99.90;;;;;;6157686;23;20017;-85
2023/08/29 01:04:36;;;;;;;6.60;2.60;;;13.70;99.90;;;;;;6157491;23;20020;-85
2023/08/29 01:07:03;;;;;;;5.40;1.75;;;13.80;99.90;;;;;;6133019;23;20017;-85
2023/08/29 01:09:29;;;;;;;6.57;3.22;;;13.70;99.90;;;;;;6132973;23;20429;-86
2023/08/29 01:12:11;;;;;;;6.60;2.55;;;13.70;99.90;;;;;;6157608;23;20013;-85
2023/08/29 01:14:58;;;;;;;8.40;3.25;;;13.70;99.90;;;;;;6132610;23;20036;-85
2023/08/29 01:17:48;;;;;;;4.65;1.67;;;13.70;99.90;;;;;;6157168;23;20032;-85
2023/08/29 01:20:16;;;;;;;7.43;1.60;;;13.60;99.90;;;;;;6133799;23;20495;-85
2023/08/29 01:22:52;;;;;;;2.72;1.20;;;13.60;99.90;;;;;;6160545;23;20049;-85
2023/08/29 01:25:32;;;;;;;4.75;1.73;;;13.50;99.90;;;;;;6184924;23;20055;-85
2023/08/29 01:27:59;;;;;;;4.93;1.73;;;13.50;99.90;;;;;;6135607;23;20455;-85
2023/08/29 01:30:25;;;;;;;6.15;2.90;;;13.50;99.90;;;;;;6160388;23;20013;-86
2023/08/29 01:32:52;;;;;;;3.60;1.40;;;13.50;99.90;;;;;;6135903;23;20017;-86
2023/08/29 01:35:17;;;;;;;4.55;1.85;;;13.50;99.90;;;;;;6160165;23;20009;-85
2023/08/29 01:37:43;;;;;;;4.18;1.77;;;13.40;99.90;;;;;;6135863;23;20019;-85
2023/08/29 01:40:10;;;;;;;4.35;2.08;;;13.40;99.90;;;;;;6135698;23;20016;-85
2023/08/29 01:42:36;;;;;;;5.35;1.92;;;13.40;99.90;;;;;;6135230;23;20020;-85
2023/08/29 01:45:03;;;;;;;5.57;2.55;;;13.40;99.90;;;;;;6159332;23;20429;-85
2023/08/29 01:47:29;;;;;;;6.00;3.00;;;13.40;99.90;;;;;;6135599;23;20084;-85
2023/08/29 01:49:54;;;;;;;6.00;2.15;;;13.40;99.90;;;;;;6159999;23;20052;-85
2023/08/29 01:52:20;;;;;;;6.32;2.20;;;13.40;99.90;;;;;;6160478;23;20104;-85
2023/08/29 01:54:46;;;;;;;6.60;3.50;;;13.40;99.90;;;;;;6160281;23;20063;-85
2023/08/29 01:57:15;;;;;;;6.68;3.38;;;13.40;99.90;;;;;;6160193;23;20013;-85
2023/08/29 01:59:42;;;;;;;6.70;3.88;;;13.50;99.90;;;;;;6160193;23;20013;-85
2023/08/29 02:02:07;;;;;;;6.93;3.40;;;13.50;99.90;;;;;;6160433;23;20013;-85
2023/08/29 02:04:33;;;;;;;5.72;3.20;;;13.50;99.90;;;;;;6159490;23;20052;-85
2023/08/29 02:06:59;;;;;;;6.40;1.95;;;13.50;99.90;;;;;;6160108;23;20040;-85
2023/08/29 02:09:24;;;;;;;4.22;1.80;;;13.40;99.90;;;;;;6135421;23;20350;-85
2023/08/29 02:11:50;;;;;;;3.13;1.30;;;13.40;99.90;;;;;;6160257;23;20070;-85
2023/08/29 02:14:16;;;;;;;3.00;1.20;;;13.30;99.90;;;;;;6135626;23;20013;-85
2023/08/29 02:16:41;;;;;;;7.45;2.72;;;13.30;99.90;;;;;;6135195;23;20017;-85
2023/08/29 02:19:07;;;;;;;4.45;2.30;;;13.30;99.90;;;;;;6135156;23;20731;-85
2023/08/29 02:21:32;;;;;;;4.00;1.40;;;13.40;99.90;;;;;;6186735;23;20063;-85
2023/08/29 02:23:59;;;;;;;2.95;1.52;;;13.30;99.90;;;;;;6134741;23;20088;-85
2023/08/29 02:26:24;;;;;;;5.95;2.80;;;13.20;99.90;;;;;;6159534;23;20016;-85
2023/08/29 02:28:55;;;;;;;4.03;1.65;;;13.30;99.90;;;;;;6159651;23;20017;-85
2023/08/29 02:31:22;;;;;;;5.28;1.60;;;13.30;99.90;;;;;;6158854;23;20332;-85
2023/08/29 02:33:47;;;;;;;4.53;1.80;;;13.20;99.90;;;;;;6158223;23;20070;-85
2023/08/29 02:36:13;;;;;;;5.97;2.85;;;13.20;99.90;;;;;;6158386;23;20419;-86
2023/08/29 02:38:39;;;;;;;5.07;2.15;;;13.20;99.90;;;;;;6158527;23;20009;-85
2023/08/29 02:41:11;;;;;;;6.68;3.05;;;13.20;99.90;;;;;;6158311;23;20350;-85
2023/08/29 02:43:37;;;;;;;5.43;2.47;;;13.20;99.90;;;;;;6133734;23;20013;-85
2023/08/29 02:46:03;;;;;;;2.92;1.13;;;13.20;99.90;;;;;;6157948;23;20020;-85
2023/08/29 02:48:28;;;;;;;2.13;1.00;;;13.20;99.90;;;;;;6157962;23;20013;-85
2023/08/29 02:50:54;;;;;;;2.92;1.00;;;13.00;99.90;;;;;;6158295;23;20096;-85
2023/08/29 02:53:20;;;;;;;2.83;1.20;;;12.90;99.90;;;;;;6158338;23;20501;-85
2023/08/29 02:55:49;;;;;;;3.70;1.17;;;12.90;99.90;;;;;;6158298;23;20020;-85
2023/08/29 02:58:15;;;;;;;6.57;3.80;;;12.90;99.90;;;;;;6156278;23;20045;-83
2023/08/29 03:00:40;;;;;;;5.28;2.10;;;13.00;99.90;;;;;;6153930;23;20351;-84
2023/08/29 03:03:06;;;;;;;2.67;1.00;;;13.00;99.90;;;;;;6157923;23;20044;-83
2023/08/29 03:05:32;;;;;;;1.90;1.00;;;12.90;99.90;;;;;;6133381;23;20104;-83
2023/08/29 03:07:59;;;;;;;2.75;1.27;;;12.80;99.90;;;;;;6133291;23;20017;-83
2023/08/29 03:10:25;;;;;;;1.80;0.80;;;12.80;99.90;;;;;;6157989;23;20336;-83
2023/08/29 03:12:51;;;;;;;10.57;1.00;;;12.70;99.90;;;;;;6133175;23;20451;-84
2023/08/29 03:15:18;;;;;;;13.43;1.77;;;12.60;99.90;;;;;;6157677;23;20009;-83
2023/08/29 03:17:44;;;;;;;35.20;2.28;;;12.70;99.90;;;;;;6157929;23;20009;-83
2023/08/29 03:20:10;;;;;;;24.15;1.73;;;12.60;99.90;;;;;;6157517;23;20042;-84
2023/08/29 03:22:36;;;;;;;12.88;1.50;;;12.50;99.90;;;;;;6132706;23;20075;-84
2023/08/29 03:25:02;;;;;;;8.98;1.20;;;12.50;99.90;;;;;;6156965;23;20336;-84
2023/08/29 03:27:27;;;;;;;18.67;1.88;;;12.40;99.90;;;;;;6133063;23;20013;-84
2023/08/29 03:29:54;;;;;;;12.77;1.55;;;12.30;99.90;;;;;;6132969;23;20067;-84
2023/08/29 03:32:19;;;;;;;16.10;1.38;;;12.30;99.90;;;;;;6158127;23;20052;-84
2023/08/29 03:34:45;;;;;;;3.58;0.80;;;12.20;99.90;;;;;;6156884;23;20013;-84
2023/08/29 03:37:11;;;;;;;18.80;1.70;;;12.10;99.90;;;;;;6157467;23;20011;-84
2023/08/29 03:39:37;;;;;;;38.08;2.25;;;12.10;99.90;;;;;;6157397;23;20009;-85
2023/08/29 03:42:03;;;;;;;7.53;1.27;;;12.10;99.90;;;;;;6133121;23;20517;-84
2023/08/29 03:44:28;;;;;;;16.98;2.95;;;12.00;99.90;;;;;;6156829;23;20017;-85
2023/08/29 03:46:54;;;;;;;3.45;1.33;;;12.10;99.90;;;;;;6132871;23;20013;-83
2023/08/29 03:49:19;;;;;;;5.20;2.60;;;12.00;99.90;;;;;;6132748;23;20216;-85
2023/08/29 03:51:45;;;;;;;5.70;2.78;;;12.00;99.90;;;;;;6132911;23;20545;-85
2023/08/29 03:54:10;;;;;;;3.88;1.50;;;12.10;99.90;;;;;;6157807;23;20008;-85
2023/08/29 03:56:36;;;;;;;4.72;1.17;;;12.10;99.90;;;;;;6157215;23;20009;-84
2023/08/29 03:59:04;;;;;;;4.93;1.98;;;12.00;99.90;;;;;;6132679;23;20099;-84
2023/08/29 04:01:29;;;;;;;7.53;1.77;;;12.00;99.90;;;;;;6157381;23;20013;-85
2023/08/29 04:03:55;;;;;;;9.90;2.47;;;12.00;99.90;;;;;;6132595;23;20009;-85
2023/08/29 04:06:21;;;;;;;4.35;1.83;;;12.00;99.90;;;;;;6156972;23;20013;-85
2023/08/29 04:08:47;;;;;;;6.75;1.92;;;12.00;99.90;;;;;;6157097;23;20075;-84
2023/08/29 04:11:12;;;;;;;4.30;1.50;;;12.00;99.90;;;;;;6157342;23;20477;-84
2023/08/29 04:13:38;;;;;;;3.97;1.50;;;12.00;99.90;;;;;;6157291;23;20013;-85
2023/08/29 04:16:04;;;;;;;5.47;2.10;;;12.00;99.90;;;;;;6156465;23;20067;-84
2023/08/29 04:18:31;;;;;;;5.68;2.25;;;12.00;99.90;;;;;;6157065;23;20012;-84
2023/08/29 04:20:56;;;;;;;4.68;1.88;;;12.00;99.90;;;;;;6132772;23;20429;-84
2023/08/29 04:23:22;;;;;;;4.43;1.92;;;12.10;99.90;;;;;;6133058;23;20032;-84
2023/08/29 04:25:48;;;;;;;10.18;2.25;;;12.00;99.90;;;;;;6157035;23;20020;-84
2023/08/29 04:28:19;;;;;;;5.15;1.83;;;12.10;99.90;;;;;;6183591;23;20013;-84
2023/08/29 04:30:45;;;;;;;6.00;1.80;;;12.00;99.90;;;;;;6183491;23;20424;-84
2023/08/29 04:33:11;;;;;;;10.82;1.50;;;12.00;99.90;;;;;;6132116;23;20553;-84
2023/08/29 04:35:36;;;;;;;5.43;1.60;;;12.00;99.90;;;;;;6132436;23;20063;-84
2023/08/29 04:38:02;;;;;;;10.57;3.08;;;12.00;99.90;;;;;;6156880;23;20083;-84
2023/08/29 04:40:28;;;;;;;3.65;1.30;;;12.10;99.90;;;;;;6183355;23;20005;-84
2023/08/29 04:42:53;;;;;;;4.50;1.35;;;12.00;99.90;;;;;;6132194;23;20408;-84
2023/08/29 04:45:19;;;;;;;3.45;1.83;;;11.90;99.90;;;;;;6156881;23;20020;-84
2023/08/29 04:47:45;;;;;;;2.67;1.50;;;12.00;99.90;;;;;;6132483;23;20012;-84
2023/08/29 04:50:11;;;;;;;1.33;0.70;;;12.00;99.90;;;;;;6157260;23;20526;-84
2023/08/29 04:52:37;;;;;;;2.63;0.80;;;11.90;99.90;;;;;;6132753;23;20016;-84
2023/08/29 04:55:05;;;;;;;1.30;0.70;;;11.80;99.90;;;;;;6132311;23;20324;-84
2023/08/29 04:57:33;;;;;;;2.20;0.98;;;11.70;99.90;;;;;;6131927;23;20013;-84
2023/08/29 05:00:00;;;;;;;2.78;1.05;;;11.70;99.90;;;;;;6156397;23;20020;-84
2023/08/29 05:02:26;;;;;;;4.10;1.65;;;11.60;99.90;;;;;;6132061;23;20055;-84
2023/08/29 05:04:52;;;;;;;2.15;0.80;;;11.70;99.90;;;;;;6156562;23;20033;-84
2023/08/29 05:07:18;;;;;;;2.13;0.82;;;11.70;99.90;;;;;;6156994;23;20009;-84
2023/08/29 05:09:44;;;;;;;1.42;1.10;;;11.60;99.90;;;;;;6131599;23;20041;-84
2023/08/29 05:12:10;;;;;;;3.58;0.75;;;11.70;99.90;;;;;;6156023;23;20091;-84
2023/08/29 05:14:38;;;;;;;1.38;0.57;;;11.70;99.90;;;;;;6132118;23;20092;-84
2023/08/29 05:17:04;;;;;;;1.80;0.68;;;11.60;99.90;;;;;;6156342;23;20520;-84
2023/08/29 05:19:30;;;;;;;1.10;0.60;;;11.60;99.90;;;;;;6132142;23;20032;-84
2023/08/29 05:21:55;;;;;;;3.92;1.02;;;11.60;99.90;;;;;;6156810;23;20386;-84
2023/08/29 05:24:21;;;;;;;1.95;0.95;;;11.60;99.90;;;;;;6156476;23;20549;-84
2023/08/29 05:26:47;;;;;;;2.92;0.93;;;11.60;99.90;;;;;;6156474;23;20021;-84
2023/08/29 05:29:12;;;;;;;1.55;0.80;;;11.70;99.90;;;;;;6156324;23;20013;-84
2023/08/29 05:31:38;;;;;;;1.75;0.90;;;11.70;99.90;;;;;;6156540;23;20039;-85
2023/08/29 05:34:04;;;;;;;1.58;0.70;;;11.60;99.90;;;;;;6156860;23;20064;-84
2023/08/29 05:36:30;;;;;;;2.75;0.90;;;11.70;99.90;;;;;;6156313;23;20059;-84
2023/08/29 05:38:56;;;;;;;1.80;0.85;;;11.70;99.90;;;;;;6156096;23;20051;-84
2023/08/29 05:41:21;;;;;;;2.08;0.90;;;11.70;99.90;;;;;;6156209;23;20013;-84
2023/08/29 05:43:47;;;;;;;14.65;1.15;;;11.70;99.90;;;;;;6156409;23;20013;-84
2023/08/29 05:46:13;;;;;;;15.43;1.80;;;11.70;99.90;;;;;;6156484;23;20013;-85
2023/08/29 05:48:38;;;;;;;11.38;1.08;;;11.80;99.90;;;;;;6156441;23;20501;-84
2023/08/29 05:51:04;;;;;;;7.68;1.48;;;11.70;99.90;;;;;;6156663;23;20013;-85
2023/08/29 05:53:29;;;;;;;1.42;0.65;;;11.70;99.90;;;;;;6156493;23;20017;-84
2023/08/29 05:55:55;;;;;;;0.50;0.50;;;11.60;99.90;;;;;;6156310;23;20494;-84
2023/08/29 05:58:24;;;;;;;0.55;0.40;;;11.60;99.90;;;;;;6131625;23;20020;-84
2023/08/29 06:00:51;;;;;;;1.85;0.85;;;11.60;99.90;;;;;;6131580;23;20009;-84
2023/08/29 06:03:16;;;;;;;1.33;0.70;;;11.60;99.90;;;;;;6131769;23;20009;-84
2023/08/29 06:05:42;;;;;;;1.10;0.90;;;11.70;99.90;;;;;;6156383;23;20012;-84
2023/08/29 06:08:08;;;;;;;1.75;1.20;;;11.80;99.90;;;;;;6158038;23;20017;-84
2023/08/29 06:10:33;;;;;;;1.95;0.80;;;11.90;99.90;;;;;;6158023;23;20013;-84
2023/08/29 06:13:02;;;;;;;1.65;0.75;;;11.90;99.90;;;;;;6158472;23;20355;-84
2023/08/29 06:15:28;;;;;;;1.45;0.70;;;11.90;99.90;;;;;;6158194;23;20032;-84
2023/08/29 06:17:54;;;;;;;1.35;0.73;;;11.90;99.90;;;;;;6157044;23;20459;-84
2023/08/29 06:20:20;;;;;;;3.50;1.45;;;11.90;99.90;;;;;;6133425;23;20027;-84
2023/08/29 06:22:45;;;;;;;4.82;2.40;;;12.00;99.90;;;;;;6158063;23;20047;-84
2023/08/29 06:25:11;;;;;;;1.48;0.88;;;12.10;99.90;;;;;;6132833;23;20017;-84
2023/08/29 06:27:37;;;;;;;3.78;1.45;;;12.10;99.90;;;;;;6133466;23;20017;-84
2023/08/29 06:30:04;;;;;;;3.47;1.40;;;12.10;99.90;;;;;;6133314;23;20020;-84
2023/08/29 06:32:30;;;;;;;5.10;1.63;;;12.10;99.90;;;;;;6158074;23;20043;-84
2023/08/29 06:34:57;;;;;;;5.93;2.17;;;12.20;99.90;;;;;;6158142;23;20455;-84
2023/08/29 06:37:22;;;;;;;5.30;1.80;;;12.20;99.90;;;;;;6157263;23;20009;-84
2023/08/29 06:39:48;;;;;;;4.28;1.88;;;12.30;99.90;;;;;;6158047;23;20020;-84
2023/08/29 06:42:13;;;;;;;8.35;4.40;;;12.30;99.90;;;;;;6157864;23;20332;-85
2023/08/29 06:44:39;;;;;;;8.27;4.90;;;12.50;99.90;;;;;;6157824;23;20020;-85
2023/08/29 06:47:05;;;;;;;7.30;2.75;;;12.60;99.90;;;;;;6132956;23;20017;-84
2023/08/29 06:49:30;;;;;;;6.97;2.28;;;12.60;99.90;;;;;;6157130;23;20021;-84
2023/08/29 06:51:56;;;;;;;7.15;2.20;;;12.60;99.90;;;;;;6157322;23;20019;-85
2023/08/29 06:54:22;;;;;;;4.82;1.92;;;12.60;99.90;;;;;;6157873;23;20009;-84
2023/08/29 06:56:49;;;;;;;5.78;2.33;;;12.70;99.90;;;;;;6132883;23;20546;-84
2023/08/29 06:59:15;;;;;;;7.32;2.65;;;12.70;99.90;;;;;;6157454;23;20016;-85
2023/08/29 07:01:41;;;;;;;8.75;4.60;;;12.80;99.90;;;;;;6157558;23;20020;-85
2023/08/29 07:04:09;;;;;;;8.05;4.80;;;13.00;99.90;;;;;;6157580;23;20161;-85
2023/08/29 07:06:34;;;;;;;8.32;4.85;;;13.10;99.90;;;;;;6132714;23;20084;-84
2023/08/29 07:09:00;;;;;;;8.80;2.97;;;13.20;99.90;;;;;;6132891;23;20414;-84
2023/08/29 07:11:26;;;;;;;7.07;2.47;;;13.20;99.90;;;;;;6184219;23;20044;-84
2023/08/29 07:13:52;;;;;;;9.55;5.60;;;13.20;99.90;;;;;;6157628;23;20051;-84
2023/08/29 07:16:17;;;;;;;6.43;2.40;;;13.30;99.90;;;;;;6157771;23;20063;-84
2023/08/29 07:18:44;;;;;;;6.32;2.35;;;13.30;99.90;;;;;;6182650;23;20017;-84
2023/08/29 07:21:10;;;;;;;10.10;3.28;;;13.40;99.90;;;;;;6157022;23;20005;-84
2023/08/29 07:23:35;;;;;;;7.45;2.50;;;13.40;99.90;;;;;;6156093;23;20059;-85
2023/08/29 07:26:01;;;;;;;7.00;2.88;;;13.50;99.90;;;;;;6156185;23;20068;-84
2023/08/29 07:28:27;;;;;;;8.70;3.50;;;13.50;99.90;;;;;;6157001;23;20016;-84
2023/08/29 07:30:52;;;;;;;6.93;3.35;;;13.60;99.90;;;;;;6157684;23;20012;-84
2023/08/29 07:33:18;;;;;;;11.63;8.07;;;13.70;99.90;;;;;;6157753;23;20009;-84
2023/08/29 07:35:46;;;;;;;8.88;3.85;;;13.80;99.90;;;;;;6184249;23;20036;-84
2023/08/29 07:38:17;;;;;;;9.93;4.10;;;13.90;99.90;;;;;;6157200;23;20009;-84
2023/08/29 07:40:47;;;;;;;10.70;3.85;;;13.90;99.90;;;;;;6157936;23;20016;-84
2023/08/29 07:43:14;;;;;;;9.90;6.25;;;14.10;99.90;;;;;;6133016;23;20347;-85
2023/08/29 07:45:40;;;;;;;7.28;3.00;;;14.20;99.90;;;;;;6157134;23;20013;-85
2023/08/29 07:48:06;;;;;;;8.75;3.75;;;14.30;99.90;;;;;;6132013;23;20020;-85
2023/08/29 07:50:31;;;;;;;8.50;3.58;;;14.40;99.90;;;;;;6132992;23;20024;-85
2023/08/29 07:52:57;;;;;;;9.35;6.05;;;14.50;99.90;;;;;;6157776;23;20013;-85
2023/08/29 07:55:23;;;;;;;9.73;5.22;;;14.60;99.90;;;;;;6157867;23;20045;-85
2023/08/29 07:57:49;;;;;;;7.78;2.70;;;14.80;99.90;;;;;;6157028;23;20487;-85
2023/08/29 08:00:16;;;;;;;10.15;5.85;;;14.90;99.90;;;;;;6133011;23;20013;-84
2023/08/29 08:02:41;;;;;;;6.05;2.53;;;15.00;99.90;;;;;;6157463;23;20021;-84
2023/08/29 08:05:08;;;;;;;7.82;2.63;;;15.10;99.90;;;;;;6157188;23;20092;-84
2023/08/29 08:07:34;;;;;;;8.00;2.95;;;15.10;99.90;;;;;;6156930;23;20454;-85
2023/08/29 08:09:59;;;;;;;8.57;4.55;;;15.20;99.90;;;;;;6132230;23;20044;-84
2023/08/29 08:12:25;;;;;;;8.90;2.90;;;15.30;99.90;;;;;;6156321;23;20017;-84
2023/08/29 08:14:52;;;;;;;9.45;4.72;;;15.40;99.90;;;;;;6132522;23;20092;-84
2023/08/29 08:17:18;;;;;;;8.55;4.75;;;15.60;99.90;;;;;;6156816;23;20398;-85
2023/08/29 08:19:44;;;;;;;8.07;4.97;;;15.70;99.90;;;;;;6157147;23;20013;-85
2023/08/29 08:22:10;;;;;;;10.43;3.08;;;15.80;99.90;;;;;;6132642;23;20017;-84
2023/08/29 08:24:35;;;;;;;10.15;5.40;;;15.90;99.90;;;;;;6157011;23;20095;-84
2023/08/29 08:27:01;;;;;;;8.07;4.30;;;16.00;99.90;;;;;;6156898;23;20017;-85
2023/08/29 08:29:27;;;;;;;8.82;4.65;;;16.10;99.90;;;;;;6131818;23;20017;-85
2023/08/29 08:31:52;;;;;;;6.85;2.80;;;16.20;99.90;;;;;;6156831;23;20021;-85
2023/08/29 08:34:18;;;;;;;6.50;2.40;;;16.20;99.90;;;;;;6156915;23;20391;-84
2023/08/29 08:36:43;;;;;;;4.53;1.55;;;16.20;99.90;;;;;;6156991;23;20009;-85
2023/08/29 08:39:09;;;;;;;6.32;2.83;;;16.30;99.90;;;;;;6157096;23;20013;-85
2023/08/29 08:41:36;;;;;;;7.55;3.67;;;16.40;99.90;;;;;;6157654;23;20088;-85
2023/08/29 08:44:05;;;;;;;8.15;3.35;;;16.40;99.90;;;;;;6156712;23;20021;-85
2023/08/29 08:46:31;;;;;;;9.82;4.25;;;16.60;99.90;;;;;;6156285;23;20005;-85
2023/08/29 08:48:58;;;;;;;7.13;3.58;;;16.60;99.90;;;;;;6157077;23;20009;-85
2023/08/29 08:51:26;;;;;;;8.32;2.28;;;16.70;99.90;;;;;;6156980;23;20071;-85
2023/08/29 08:53:53;;;;;;;7.35;2.30;;;16.70;99.90;;;;;;6157019;23;20098;-85
2023/08/29 08:56:19;;;;;;;4.30;1.40;;;16.80;99.90;;;;;;6156122;23;20261;-85
2023/08/29 08:58:45;;;;;;;4.80;1.88;;;16.90;99.90;;;;;;6156024;23;20091;-85
2023/08/29 09:01:12;;;;;;;5.80;2.35;;;16.90;99.90;;;;;;6183113;23;20044;-85
2023/08/29 09:03:38;;;;;;;8.18;2.67;;;17.00;99.90;;;;;;6156806;23;20013;-85
2023/08/29 09:06:05;;;;;;;8.02;2.25;;;17.10;99.90;;;;;;6155577;23;20017;-85
2023/08/29 09:08:31;;;;;;;7.55;3.28;;;17.20;99.90;;;;;;6155662;23;20585;-85
2023/08/29 09:11:01;;;;;;;7.53;3.10;;;17.30;99.90;;;;;;6182978;23;20086;-85
2023/08/29 09:13:26;;;;;;;8.52;4.10;;;17.30;99.90;;;;;;6157136;23;20016;-85
2023/08/29 09:15:52;;;;;;;8.05;3.60;;;17.40;99.90;;;;;;6157147;23;20349;-85
2023/08/29 09:18:24;;;;;;;7.05;3.38;;;17.60;99.90;;;;;;6157033;23;20010;-85
2023/08/29 09:20:52;;;;;;;6.32;2.60;;;17.70;99.90;;;;;;6132495;23;20009;-85
2023/08/29 09:23:25;;;;;;;8.45;3.30;;;17.80;99.90;;;;;;6157144;23;20013;-85
2023/08/29 09:25:56;;;;;;;9.60;4.05;;;17.90;99.90;;;;;;6156856;23;20092;-85
2023/08/29 09:28:29;;;;;;;9.10;4.65;;;18.00;99.90;;;;;;6156704;23;20107;-85
2023/08/29 09:31:15;;;;;;;8.00;3.60;;;18.10;99.90;;;;;;6156848;23;20052;-85
2023/08/29 09:33:41;;;;;;;7.25;2.78;;;18.10;99.90;;;;;;6157173;23;20201;-85
2023/08/29 09:36:06;;;;;;;6.00;2.22;;;18.20;99.90;;;;;;6132271;23;20505;-85
2023/08/29 09:38:35;;;;;;;5.43;1.83;;;18.20;99.90;;;;;;6156592;23;20015;-85
2023/08/29 09:41:01;;;;;;;7.00;2.35;;;18.30;99.90;;;;;;6157821;23;20217;-85
2023/08/29 09:43:28;;;;;;;5.50;1.80;;;18.30;99.90;;;;;;6130036;23;20009;-85
2023/08/29 09:45:57;;;;;;;7.13;2.20;;;18.40;99.90;;;;;;6131375;23;20015;-85
2023/08/29 09:48:23;;;;;;;5.88;1.90;;;18.40;99.90;;;;;;6134038;23;20360;-85
2023/08/29 09:50:50;;;;;;;4.65;1.88;;;18.40;99.90;;;;;;6134349;23;20017;-85
2023/08/29 09:53:20;;;;;;;6.20;1.90;;;18.50;99.90;;;;;;6134209;23;20024;-85
2023/08/29 09:55:48;;;;;;;6.45;1.92;;;18.50;99.90;;;;;;6159595;23;20009;-84
2023/08/29 09:58:16;;;;;;;8.40;2.90;;;18.60;99.90;;;;;;6133631;23;20005;-85
2023/08/29 10:00:43;;;;;;;6.28;2.40;;;18.70;99.90;;;;;;6159438;23;20020;-86
2023/08/29 10:03:10;;;;;;;6.05;2.20;;;18.80;99.90;;;;;;6159606;23;20017;-85
2023/08/29 10:05:38;;;;;;;5.78;2.30;;;18.90;99.90;;;;;;6158483;23;20044;-85
2023/08/29 10:08:33;;;;;;;5.07;2.33;;;19.10;99.90;;;;;;6158494;23;20009;-85
2023/08/29 10:11:00;;;;;;;7.00;2.28;;;19.10;99.90;;;;;;6148591;23;20498;-85
2023/08/29 10:13:27;;;;;;;6.25;2.20;;;19.20;99.90;;;;;;6134081;23;20467;-85
2023/08/29 10:15:54;;;;;;;6.15;2.10;;;19.20;99.90;;;;;;6158995;23;20415;-85
2023/08/29 10:18:19;;;;;;;5.30;2.10;;;19.20;99.90;;;;;;6133503;23;20339;-85
2023/08/29 10:20:46;;;;;;;4.78;1.60;;;19.30;99.90;;;;;;6158242;23;20451;-86
2023/08/29 10:23:13;;;;;;;5.22;1.58;;;19.40;99.90;;;;;;6158571;23;20009;-86
2023/08/29 10:25:40;;;;;;;8.00;1.80;;;19.50;99.90;;;;;;6158093;23;20450;-86
2023/08/29 10:28:11;;;;;;;4.65;1.88;;;19.50;99.90;;;;;;6157984;23;20036;-86
2023/08/29 10:30:40;;;;;;;8.02;2.22;;;19.60;99.90;;;;;;6158020;23;20332;-86
2023/08/29 10:33:07;;;;;;;10.30;5.00;;;19.70;99.90;;;;;;6158969;23;20059;-86
2023/08/29 10:35:33;;;;;;;7.78;2.60;;;19.80;99.90;;;;;;6158858;23;20012;-86
2023/08/29 10:38:12;;;;;;;4.95;1.70;;;20.00;99.90;;;;;;6158352;23;20041;-86
2023/08/29 10:40:38;;;;;;;4.03;1.50;;;20.00;99.90;;;;;;6158885;23;20005;-86
2023/08/29 10:43:17;;;;;;;4.72;1.50;;;20.00;99.90;;;;;;6158441;23;20075;-87
2023/08/29 10:45:51;;;;;;;5.45;1.50;;;20.00;99.90;;;;;;6133461;23;20018;-86
2023/08/29 10:48:18;;;;;;;3.40;1.40;;;20.00;99.90;;;;;;6158288;23;20017;-87
2023/08/29 10:50:48;;;;;;;3.45;1.30;;;20.10;99.90;;;;;;6158577;23;20044;-86
2023/08/29 10:53:19;;;;;;;3.03;1.13;;;20.10;99.90;;;;;;6132467;23;20089;-86
2023/08/29 10:55:59;;;;;;;3.35;1.17;;;20.20;99.90;;;;;;6158520;23;20379;-86
2023/08/29 10:58:39;;;;;;;3.90;1.05;;;20.20;99.90;;;;;;6158216;23;20009;-86
2023/08/29 11:01:06;;;;;;;2.67;1.05;;;20.30;99.90;;;;;;6158556;23;20071;-86
2023/08/29 11:03:48;;;;;;;3.05;0.90;;;20.30;99.90;;;;;;6158350;23;20017;-86
2023/08/29 11:06:15;;;;;;;2.03;0.90;;;20.40;99.90;;;;;;6133405;23;20013;-86
2023/08/29 11:08:41;;;;;;;4.03;1.20;;;20.50;99.90;;;;;;6157992;23;20019;-86
2023/08/29 11:11:09;;;;;;;4.43;1.42;;;20.50;99.50;;;;;;6133054;23;20091;-87
2023/08/29 11:13:52;;;;;;;3.72;1.30;;;20.50;97.20;;;;;;6133640;23;20020;-86
2023/08/29 11:16:18;;;;;;;5.13;1.10;;;20.40;97.30;;;;;;6133958;23;20013;-86
2023/08/29 11:18:44;;;;;;;3.53;1.08;;;20.40;99.00;;;;;;6157838;23;20009;-86
2023/08/29 11:21:10;;;;;;;2.88;1.00;;;20.40;98.40;;;;;;6158548;23;20028;-86
2023/08/29 11:23:39;;;;;;;2.80;1.10;;;20.40;98.20;;;;;;6157983;23;20072;-86
2023/08/29 11:26:05;;;;;;;2.80;1.00;;;20.50;98.60;;;;;;6157783;23;20016;-86
2023/08/29 11:28:37;;;;;;;3.08;0.90;;;20.50;97.40;;;;;;6157600;23;20009;-87
2023/08/29 11:31:04;;;;;;;3.38;1.10;;;20.50;99.90;;;;;;6132476;23;20016;-87
2023/08/29 11:33:31;;;;;;;4.43;1.15;;;20.60;99.90;;;;;;6157728;23;20459;-87
2023/08/29 11:35:57;;;;;;;3.05;1.30;;;20.60;99.90;;;;;;6157800;23;20013;-87
2023/08/29 11:38:29;;;;;;;4.05;1.45;;;20.50;99.40;;;;;;6157962;23;20005;-86
2023/08/29 11:41:01;;;;;;;3.08;1.35;;;20.40;97.30;;;;;;6133573;23;20009;-86
2023/08/29 11:43:27;;;;;;;3.67;1.30;;;20.40;98.40;;;;;;6133515;23;20115;-87
2023/08/29 11:45:59;;;;;;;3.38;1.17;;;20.30;99.90;;;;;;6157423;23;20013;-87
2023/08/29 11:48:26;;;;;;;4.68;1.70;;;20.30;99.70;;;;;;6132608;23;20040;-87
2023/08/29 11:51:06;;;;;;;5.05;1.65;;;20.30;99.50;;;;;;6133136;23;20013;-86
2023/08/29 11:53:36;;;;;;;4.28;1.75;;;20.20;99.90;;;;;;6132876;23;20524;-86
2023/08/29 11:56:04;;;;;;;5.82;1.90;;;20.00;99.90;;;;;;6157946;23;20056;-86
2023/08/29 11:58:31;;;;;;;5.22;1.60;;;19.90;99.90;;;;;;6157387;23;20020;-86
2023/08/29 12:01:00;;;;;;;6.32;1.70;;;19.70;99.90;;;;;;6133013;23;20009;-86
2023/08/29 12:03:26;;;;;;;6.57;2.00;;;19.60;99.90;;;;;;6157396;23;20013;-86
2023/08/29 12:05:56;;;;;;;4.88;1.90;;;19.40;99.90;;;;;;6157112;23;20060;-86
2023/08/29 12:08:37;;;;;;;5.38;1.80;;;19.30;99.90;;;;;;6132939;23;20351;-86
2023/08/29 12:11:03;;;;;;;5.93;1.70;;;19.30;99.90;;;;;;6157264;23;20021;-86
2023/08/29 12:13:29;;;;;;;5.15;1.75;;;19.20;99.90;;;;;;6155469;23;20087;-86
2023/08/29 12:15:55;;;;;;;4.85;1.60;;;19.10;99.90;;;;;;6180986;23;20017;-86
2023/08/29 12:18:24;;;;;;;3.65;1.58;;;19.10;99.90;;;;;;6153993;23;20016;-86
2023/08/29 12:20:50;;;;;;;5.57;1.80;;;19.10;99.90;;;;;;6154552;23;20044;-86
2023/08/29 12:23:27;;;;;;;4.40;1.63;;;19.10;99.90;;;;;;6129658;23;20013;-86
2023/08/29 12:25:55;;;;;;;4.90;1.50;;;19.10;99.90;;;;;;6153520;23;20013;-86
2023/08/29 12:28:22;;;;;;;3.42;1.35;;;19.10;99.90;;;;;;6154306;23;20024;-86
2023/08/29 12:30:48;;;;;;;4.75;1.50;;;19.10;99.90;;;;;;6154557;23;20024;-86
2023/08/29 12:33:13;;;;;;;5.40;1.60;;;19.10;99.90;;;;;;6156334;23;20013;-86
2023/08/29 12:35:39;;;;;;;5.22;1.55;;;19.00;99.90;;;;;;6132888;23;20028;-86
2023/08/29 12:38:06;;;;;;;4.22;1.42;;;19.00;99.90;;;;;;6157124;23;20052;-86
2023/08/29 12:40:32;;;;;;;4.10;1.25;;;19.00;99.90;;;;;;6157311;23;20017;-86
2023/08/29 12:42:57;;;;;;;4.10;1.20;;;19.10;99.90;;;;;;6157279;23;20012;-86
2023/08/29 12:45:23;;;;;;;4.93;1.40;;;19.00;99.90;;;;;;6157151;23;20013;-86